Time,TemperatureF,DewpointF,PressureIn,WindDirection,WindDirectionDegrees,WindSpeedMPH,WindSpeedGustMPH,Humidity,HourlyPrecipIn,Conditions,Clouds,dailyrainin,SoftwareType,DateUTC
2014-03-16 00:01:00,28.4,20.5,30.25,NNW,346,0.0,0.0,72,0.00,,,0.00,WeatherCatV1.22B15,2014-03-16 04:01:00,
2014-03-16 00:03:00,28.3,20.5,30.25,NW,309,2.0,3.0,72,0.00,,,0.00,WeatherCatV1.22B15,2014-03-16 04:03:00,
2014-03-16 00:05:00,28.3,20.5,30.25,North,0,0.0,3.0,72,0.00,,,0.00,WeatherCatV1.22B15,2014-03-16 04:05:00,
2014-03-16 00:10:00,28.3,20.8,30.25,NNW,333,2.0,2.0,73,0.00,,,0.00,WeatherCatV1.22B15,2014-03-16 04:10:00,
2014-03-16 00:12:00,28.3,20.8,30.25,North,355,0.0,4.0,73,0.00,,,0.00,WeatherCatV1.22B15,2014-03-16 04:12:00,
2014-03-16 00:16:00,28.2,20.4,30.26,NW,322,0.0,5.0,72,0.00,,,0.00,WeatherCatV1.22B15,2014-03-16 04:16:00,
2014-03-16 00:21:00,28.0,20.2,30.26,North,355,3.0,3.0,72,0.00,,,0.00,WeatherCatV1.22B15,2014-03-16 04:21:00,
2014-03-16 00:25:00,27.9,20.1,30.26,NNE,13,0.0,5.0,72,0.00,,,0.00,WeatherCatV1.22B15,2014-03-16 04:25:00,
2014-03-16 00:30:00,27.7,19.9,30.26,NNE,30,2.0,3.0,72,0.00,,,0.00,WeatherCatV1.22B15,2014-03-16 04:30:00,
2014-03-16 00:35:00,27.5,19.7,30.26,NNW,328,1.0,3.0,72,0.00,,,0.00,WeatherCatV1.22B15,2014-03-16 04:35:00,
2014-03-16 00:40:00,27.4,19.9,30.26,NW,325,3.0,5.0,73,0.00,,,0.00,WeatherCatV1.22B15,2014-03-16 04:40:00,
2014-03-16 00:45:00,27.2,20.0,30.26,NW,310,0.0,2.0,74,0.00,,,0.00,WeatherCatV1.22B15,2014-03-16 04:45:00,
2014-03-16 00:50:00,26.9,19.4,30.26,NNW,333,2.0,5.0,73,0.00,,,0.00,WeatherCatV1.22B15,2014-03-16 04:50:00,
2014-03-16 00:55:00,26.6,19.5,30.27,NE,41,3.0,5.0,74,0.00,,,0.00,WeatherCatV1.22B15,2014-03-16 04:55:00,
2014-03-16 01:00:00,26.3,19.2,30.27,NNW,334,0.0,5.0,74,0.00,,,0.00,WeatherCatV1.22B15,2014-03-16 05:00:00,
2014-03-16 01:05:00,26.2,19.1,30.27,NNW,346,1.0,5.0,74,0.00,,,0.00,WeatherCatV1.22B15,2014-03-16 05:05:00,
2014-03-16 01:10:00,26.1,19.0,30.27,NW,314,1.0,5.0,74,0.00,,,0.00,WeatherCatV1.22B15,2014-03-16 05:10:00,
2014-03-16 01:15:00,25.9,19.1,30.27,East,88,0.0,0.0,75,0.00,,,0.00,WeatherCatV1.22B15,2014-03-16 05:15:00,
2014-03-16 01:20:00,25.9,19.1,30.28,West,263,0.0,2.0,75,0.00,,,0.00,WeatherCatV1.22B15,2014-03-16 05:20:00,
2014-03-16 01:25:00,25.6,18.5,30.28,North,355,0.0,0.0,74,0.00,,,0.00,WeatherCatV1.22B15,2014-03-16 05:25:00,
2014-03-16 01:30:00,25.4,18.0,30.28,ENE,64,0.0,2.0,73,0.00,,,0.00,WeatherCatV1.22B15,2014-03-16 05:30:00,
2014-03-16 01:35:00,25.3,17.9,30.28,WNW,300,0.0,4.0,73,0.00,,,0.00,WeatherCatV1.22B15,2014-03-16 05:35:00,
2014-03-16 01:40:00,25.1,17.4,30.28,WNW,303,0.0,3.0,72,0.00,,,0.00,WeatherCatV1.22B15,2014-03-16 05:40:00,
2014-03-16 01:45:00,24.9,17.2,30.28,NE,56,2.0,5.0,72,0.00,,,0.00,WeatherCatV1.22B15,2014-03-16 05:45:00,
2014-03-16 01:50:00,24.7,16.7,30.28,NNE,33,1.0,12.0,71,0.00,,,0.00,WeatherCatV1.22B15,2014-03-16 05:50:00,
2014-03-16 01:55:00,24.4,16.4,30.28,North,5,0.0,0.0,71,0.00,,,0.00,WeatherCatV1.22B15,2014-03-16 05:55:00,
2014-03-16 02:00:00,24.2,16.5,30.28,NNW,348,0.0,4.0,72,0.00,,,0.00,WeatherCatV1.22B15,2014-03-16 06:00:00,
2014-03-16 02:05:00,24.1,16.4,30.28,NNE,13,3.0,6.0,72,0.00,,,0.00,WeatherCatV1.22B15,2014-03-16 06:05:00,
2014-03-16 02:10:00,24.0,16.3,30.28,NW,318,0.0,3.0,72,0.00,,,0.00,WeatherCatV1.22B15,2014-03-16 06:10:00,
2014-03-16 02:15:00,23.7,15.7,30.28,WNW,299,2.0,4.0,71,0.00,,,0.00,WeatherCatV1.22B15,2014-03-16 06:15:00,
2014-03-16 02:20:00,23.5,15.2,30.28,WNW,300,0.0,3.0,70,0.00,,,0.00,WeatherCatV1.22B15,2014-03-16 06:20:00,
2014-03-16 02:25:00,23.5,15.2,30.28,NNE,13,0.0,4.0,70,0.00,,,0.00,WeatherCatV1.22B15,2014-03-16 06:25:00,
2014-03-16 02:30:00,23.4,15.4,30.29,NW,313,3.0,3.0,71,0.00,,,0.00,WeatherCatV1.22B15,2014-03-16 06:30:00,
2014-03-16 02:35:00,23.4,15.4,30.28,North,10,0.0,4.0,71,0.00,,,0.00,WeatherCatV1.22B15,2014-03-16 06:35:00,
2014-03-16 02:40:00,23.2,14.6,30.29,NNE,18,1.0,4.0,69,0.00,,,0.00,WeatherCatV1.22B15,2014-03-16 06:40:00,
2014-03-16 02:45:00,23.0,14.0,30.30,NW,325,1.0,4.0,68,0.00,,,0.00,WeatherCatV1.22B15,2014-03-16 06:45:00,
2014-03-16 02:50:00,22.9,14.3,30.30,North,355,2.0,4.0,69,0.00,,,0.00,WeatherCatV1.22B15,2014-03-16 06:50:00,
2014-03-16 02:55:00,22.7,14.1,30.30,NNE,28,0.0,5.0,69,0.00,,,0.00,WeatherCatV1.22B15,2014-03-16 06:55:00,
2014-03-16 03:00:00,22.6,14.0,30.30,North,349,0.0,0.0,69,0.00,,,0.00,WeatherCatV1.22B15,2014-03-16 07:00:00,
2014-03-16 03:05:00,22.4,13.5,30.30,NE,41,1.0,6.0,68,0.00,,,0.00,WeatherCatV1.22B15,2014-03-16 07:05:00,
2014-03-16 03:10:00,22.3,13.0,30.30,NW,316,0.0,2.0,67,0.00,,,0.00,WeatherCatV1.22B15,2014-03-16 07:10:00,
2014-03-16 03:15:00,22.2,12.9,30.30,NW,312,0.0,0.0,67,0.00,,,0.00,WeatherCatV1.22B15,2014-03-16 07:15:00,
2014-03-16 03:20:00,22.1,12.8,30.31,NE,44,0.0,6.0,67,0.00,,,0.00,WeatherCatV1.22B15,2014-03-16 07:20:00,
2014-03-16 03:25:00,22.0,12.8,30.31,North,355,0.0,3.0,67,0.00,,,0.00,WeatherCatV1.22B15,2014-03-16 07:25:00,
2014-03-16 03:30:00,22.0,12.8,30.31,North,5,0.0,4.0,67,0.00,,,0.00,WeatherCatV1.22B15,2014-03-16 07:30:00,
2014-03-16 03:35:00,21.9,13.0,30.31,NNW,341,0.0,0.0,68,0.00,,,0.00,WeatherCatV1.22B15,2014-03-16 07:35:00,
2014-03-16 03:40:00,21.8,12.6,30.31,North,355,0.0,4.0,67,0.00,,,0.00,WeatherCatV1.22B15,2014-03-16 07:40:00,
2014-03-16 03:45:00,21.8,12.6,30.31,North,10,0.0,4.0,67,0.00,,,0.00,WeatherCatV1.22B15,2014-03-16 07:45:00,
2014-03-16 03:50:00,21.8,12.9,30.32,NNW,338,0.0,3.0,68,0.00,,,0.00,WeatherCatV1.22B15,2014-03-16 07:50:00,
2014-03-16 03:55:00,21.7,12.8,30.32,NNW,331,0.0,0.0,68,0.00,,,0.00,WeatherCatV1.22B15,2014-03-16 07:55:00,
2014-03-16 04:00:00,21.7,12.8,30.32,NW,321,0.0,1.0,68,0.00,,,0.00,WeatherCatV1.22B15,2014-03-16 08:00:00,
2014-03-16 04:05:00,21.5,12.6,30.32,North,0,0.0,2.0,68,0.00,,,0.00,WeatherCatV1.22B15,2014-03-16 08:05:00,
2014-03-16 04:10:00,21.4,12.5,30.32,North,9,0.0,1.0,68,0.00,,,0.00,WeatherCatV1.22B15,2014-03-16 08:10:00,
2014-03-16 04:15:00,21.4,12.5,30.32,NW,313,0.0,3.0,68,0.00,,,0.00,WeatherCatV1.22B15,2014-03-16 08:15:00,
2014-03-16 04:20:00,21.3,12.7,30.31,NNW,348,0.0,4.0,69,0.00,,,0.00,WeatherCatV1.22B15,2014-03-16 08:20:00,
2014-03-16 04:25:00,21.2,12.6,30.31,ENE,61,0.0,3.0,69,0.00,,,0.00,WeatherCatV1.22B15,2014-03-16 08:25:00,
2014-03-16 04:30:00,21.1,12.6,30.32,NW,317,0.0,1.0,69,0.00,,,0.00,WeatherCatV1.22B15,2014-03-16 08:30:00,
2014-03-16 04:35:00,21.1,12.9,30.31,North,0,0.0,0.0,70,0.00,,,0.00,WeatherCatV1.22B15,2014-03-16 08:35:00,
2014-03-16 04:40:00,21.0,12.8,30.32,North,5,0.0,5.0,70,0.00,,,0.00,WeatherCatV1.22B15,2014-03-16 08:40:00,
2014-03-16 04:45:00,20.9,12.7,30.33,North,5,0.0,4.0,70,0.00,,,0.00,WeatherCatV1.22B15,2014-03-16 08:45:00,
2014-03-16 04:50:00,20.8,12.6,30.33,WNW,291,0.0,7.0,70,0.00,,,0.00,WeatherCatV1.22B15,2014-03-16 08:50:00,
2014-03-16 04:55:00,20.7,12.5,30.33,North,0,0.0,2.0,70,0.00,,,0.00,WeatherCatV1.22B15,2014-03-16 08:55:00,
2014-03-16 05:00:00,20.7,12.5,30.33,NNE,23,2.0,4.0,70,0.00,,,0.00,WeatherCatV1.22B15,2014-03-16 09:00:00,
2014-03-16 05:05:00,20.6,12.7,30.33,North,355,1.0,6.0,71,0.00,,,0.00,WeatherCatV1.22B15,2014-03-16 09:05:00,
2014-03-16 05:10:00,20.5,12.3,30.33,NNW,343,0.0,0.0,70,0.00,,,0.00,WeatherCatV1.22B15,2014-03-16 09:10:00,
2014-03-16 05:16:00,20.4,12.2,30.34,NNE,17,4.0,4.0,70,0.00,,,0.00,WeatherCatV1.22B15,2014-03-16 09:16:00,
2014-03-16 05:21:00,20.4,12.2,30.34,NNW,344,0.0,0.0,70,0.00,,,0.00,WeatherCatV1.22B15,2014-03-16 09:21:00,
2014-03-16 05:26:00,20.4,12.5,30.34,NW,313,0.0,3.0,71,0.00,,,0.00,WeatherCatV1.22B15,2014-03-16 09:26:00,
2014-03-16 05:31:00,20.3,12.4,30.34,NNW,334,3.0,3.0,71,0.00,,,0.00,WeatherCatV1.22B15,2014-03-16 09:31:00,
2014-03-16 05:36:00,20.1,11.6,30.34,NNW,341,0.0,4.0,69,0.00,,,0.00,WeatherCatV1.22B15,2014-03-16 09:36:00,
2014-03-16 05:41:00,19.9,10.7,30.34,NNW,327,0.0,10.0,67,0.00,,,0.00,WeatherCatV1.22B15,2014-03-16 09:41:00,
2014-03-16 05:46:00,19.9,10.7,30.33,NW,304,1.0,1.0,67,0.00,,,0.00,WeatherCatV1.22B15,2014-03-16 09:46:00,
2014-03-16 05:51:00,19.9,10.7,30.33,NNW,331,3.0,4.0,67,0.00,,,0.00,WeatherCatV1.22B15,2014-03-16 09:51:00,
2014-03-16 05:56:00,19.9,11.1,30.33,NNW,345,0.0,2.0,68,0.00,,,0.00,WeatherCatV1.22B15,2014-03-16 09:56:00,
2014-03-16 06:01:00,19.9,11.4,30.34,North,349,0.0,3.0,69,0.00,,,0.00,WeatherCatV1.22B15,2014-03-16 10:01:00,
2014-03-16 06:06:00,19.6,10.8,30.33,NE,53,0.0,3.0,68,0.00,,,0.00,WeatherCatV1.22B15,2014-03-16 10:06:00,
2014-03-16 06:11:00,19.5,10.7,30.34,NW,306,2.0,4.0,68,0.00,,,0.00,WeatherCatV1.22B15,2014-03-16 10:11:00,
2014-03-16 06:16:00,19.4,10.3,30.34,NNE,26,0.0,0.0,67,0.00,,,0.00,WeatherCatV1.22B15,2014-03-16 10:16:00,
2014-03-16 06:21:00,19.4,10.6,30.33,NW,317,0.0,1.0,68,0.00,,,0.00,WeatherCatV1.22B15,2014-03-16 10:21:00,
2014-03-16 06:26:00,19.4,10.9,30.34,NW,318,1.0,6.0,69,0.00,,,0.00,WeatherCatV1.22B15,2014-03-16 10:26:00,
2014-03-16 06:31:00,19.4,11.2,30.34,North,349,0.0,7.0,70,0.00,,,0.00,WeatherCatV1.22B15,2014-03-16 10:31:00,
2014-03-16 06:36:00,19.4,11.6,30.34,NNW,342,3.0,4.0,71,0.00,,,0.00,WeatherCatV1.22B15,2014-03-16 10:36:00,
2014-03-16 06:41:00,19.5,11.6,30.34,NNW,342,0.0,7.0,71,0.00,,,0.00,WeatherCatV1.22B15,2014-03-16 10:41:00,
2014-03-16 06:46:00,19.5,11.3,30.34,NNE,18,0.0,3.0,70,0.00,,,0.00,WeatherCatV1.22B15,2014-03-16 10:46:00,
2014-03-16 06:51:00,19.5,11.0,30.34,NNW,340,0.0,4.0,69,0.00,,,0.00,WeatherCatV1.22B15,2014-03-16 10:51:00,
2014-03-16 06:56:00,19.5,11.0,30.34,NE,38,3.0,4.0,69,0.00,,,0.00,WeatherCatV1.22B15,2014-03-16 10:56:00,
2014-03-16 07:01:00,19.5,11.3,30.34,NNW,330,0.0,0.0,70,0.00,,,0.00,WeatherCatV1.22B15,2014-03-16 11:01:00,
2014-03-16 07:06:00,19.5,11.3,30.34,NW,322,0.0,6.0,70,0.00,,,0.00,WeatherCatV1.22B15,2014-03-16 11:06:00,
2014-03-16 07:11:00,19.3,10.8,30.34,NNW,343,0.0,3.0,69,0.00,,,0.00,WeatherCatV1.22B15,2014-03-16 11:11:00,
2014-03-16 07:16:00,19.2,10.4,30.34,NNW,333,0.0,4.0,68,0.00,,,0.00,WeatherCatV1.22B15,2014-03-16 11:16:00,
2014-03-16 07:21:00,19.3,10.5,30.35,NW,304,0.0,1.0,68,0.00,,,0.00,WeatherCatV1.22B15,2014-03-16 11:21:00,
2014-03-16 07:26:00,19.3,10.5,30.35,North,355,0.0,3.0,68,0.00,,,0.00,WeatherCatV1.22B15,2014-03-16 11:26:00,
2014-03-16 07:31:00,19.4,10.9,30.35,NW,306,0.0,0.0,69,0.00,,,0.00,WeatherCatV1.22B15,2014-03-16 11:31:00,
2014-03-16 07:36:00,19.5,11.3,30.35,North,5,0.0,0.0,70,0.00,,,0.00,WeatherCatV1.22B15,2014-03-16 11:36:00,
2014-03-16 07:41:00,19.4,10.9,30.35,NW,326,2.0,4.0,69,0.00,,,0.00,WeatherCatV1.22B15,2014-03-16 11:41:00,
2014-03-16 07:46:00,19.3,10.8,30.35,NE,34,1.0,4.0,69,0.00,,,0.00,WeatherCatV1.22B15,2014-03-16 11:46:00,
2014-03-16 07:51:00,19.2,11.1,30.36,NNW,342,10.0,10.0,70,0.00,,,0.00,WeatherCatV1.22B15,2014-03-16 11:51:00,
2014-03-16 07:56:00,19.0,10.5,30.37,NNW,340,0.0,4.0,69,0.00,,,0.00,WeatherCatV1.22B15,2014-03-16 11:56:00,
2014-03-16 08:01:00,18.9,10.8,30.37,NW,304,1.0,2.0,70,0.00,,,0.00,WeatherCatV1.22B15,2014-03-16 12:01:00,
2014-03-16 08:06:00,18.9,10.8,30.37,North,355,0.0,7.0,70,0.00,,,0.00,WeatherCatV1.22B15,2014-03-16 12:06:00,
2014-03-16 08:11:00,18.8,10.7,30.38,NW,313,4.0,4.0,70,0.00,,,0.00,WeatherCatV1.22B15,2014-03-16 12:11:00,
2014-03-16 08:16:00,18.7,10.6,30.37,NNE,25,0.0,6.0,70,0.00,,,0.00,WeatherCatV1.22B15,2014-03-16 12:16:00,
2014-03-16 08:21:00,18.7,10.9,30.37,North,0,0.0,6.0,71,0.00,,,0.00,WeatherCatV1.22B15,2014-03-16 12:21:00,
2014-03-16 08:26:00,18.7,10.6,30.37,NNE,22,0.0,4.0,70,0.00,,,0.00,WeatherCatV1.22B15,2014-03-16 12:26:00,
2014-03-16 08:31:00,18.7,10.6,30.37,WNW,298,1.0,5.0,70,0.00,,,0.00,WeatherCatV1.22B15,2014-03-16 12:31:00,
2014-03-16 08:36:00,18.8,11.0,30.37,NW,316,0.0,3.0,71,0.00,,,0.00,WeatherCatV1.22B15,2014-03-16 12:36:00,
2014-03-16 08:41:00,18.9,11.1,30.37,NW,314,0.0,0.0,71,0.00,,,0.00,WeatherCatV1.22B15,2014-03-16 12:41:00,
2014-03-16 08:46:00,18.9,11.4,30.37,NNW,328,2.0,10.0,72,0.00,,,0.00,WeatherCatV1.22B15,2014-03-16 12:46:00,
2014-03-16 08:51:00,18.7,11.2,30.37,North,0,0.0,1.0,72,0.00,,,0.00,WeatherCatV1.22B15,2014-03-16 12:51:00,
2014-03-16 08:56:00,18.5,11.0,30.37,North,355,0.0,7.0,72,0.00,,,0.00,WeatherCatV1.22B15,2014-03-16 12:56:00,
2014-03-16 09:01:00,18.3,11.1,30.38,NE,42,0.0,6.0,73,0.00,,,0.00,WeatherCatV1.22B15,2014-03-16 13:01:00,
2014-03-16 09:06:00,18.5,11.3,30.37,North,0,3.0,5.0,73,0.00,,,0.00,WeatherCatV1.22B15,2014-03-16 13:06:00,
2014-03-16 09:11:00,18.5,11.6,30.37,NW,309,0.0,5.0,74,0.00,,,0.00,WeatherCatV1.22B15,2014-03-16 13:11:00,
2014-03-16 09:16:00,18.6,11.7,30.38,NE,46,0.0,4.0,74,0.00,,,0.00,WeatherCatV1.22B15,2014-03-16 13:16:00,
2014-03-16 09:21:00,18.6,11.4,30.38,NNE,15,2.0,7.0,73,0.00,,,0.00,WeatherCatV1.22B15,2014-03-16 13:21:00,
2014-03-16 09:26:00,18.6,11.4,30.39,North,355,0.0,4.0,73,0.00,,,0.00,WeatherCatV1.22B15,2014-03-16 13:26:00,
2014-03-16 09:31:00,18.5,11.3,30.39,ENE,71,0.0,5.0,73,0.00,,,0.00,WeatherCatV1.22B15,2014-03-16 13:31:00,
2014-03-16 09:36:00,18.5,11.3,30.39,West,268,0.0,6.0,73,0.00,,,0.00,WeatherCatV1.22B15,2014-03-16 13:36:00,
2014-03-16 09:41:00,18.4,11.2,30.40,NNW,341,0.0,5.0,73,0.00,,,0.00,WeatherCatV1.22B15,2014-03-16 13:41:00,
2014-03-16 09:46:00,18.5,11.6,30.39,NE,35,0.0,6.0,74,0.00,,,0.00,WeatherCatV1.22B15,2014-03-16 13:46:00,
2014-03-16 09:51:00,18.7,11.8,30.40,ENE,72,1.0,7.0,74,0.00,,,0.00,WeatherCatV1.22B15,2014-03-16 13:51:00,
2014-03-16 09:56:00,18.5,11.3,30.40,North,0,0.0,11.0,73,0.00,,,0.00,WeatherCatV1.22B15,2014-03-16 13:56:00,
2014-03-16 10:01:00,18.5,11.3,30.41,NNW,327,0.0,6.0,73,0.00,,,0.00,WeatherCatV1.22B15,2014-03-16 14:01:00,
2014-03-16 10:06:00,18.8,11.9,30.41,ENE,69,0.0,3.0,74,0.00,,,0.00,WeatherCatV1.22B15,2014-03-16 14:06:00,
2014-03-16 10:11:00,19.1,11.9,30.41,NNW,345,0.0,6.0,73,0.00,,,0.00,WeatherCatV1.22B15,2014-03-16 14:11:00,
2014-03-16 10:16:00,18.9,11.7,30.41,NNE,19,0.0,7.0,73,0.00,,,0.00,WeatherCatV1.22B15,2014-03-16 14:16:00,
2014-03-16 10:21:00,19.0,12.1,30.41,North,0,0.0,5.0,74,0.00,,,0.00,WeatherCatV1.22B15,2014-03-16 14:21:00,
2014-03-16 10:26:00,19.0,11.8,30.41,NE,38,0.0,7.0,73,0.00,,,0.00,WeatherCatV1.22B15,2014-03-16 14:26:00,
2014-03-16 10:31:00,19.1,11.9,30.41,NNE,21,0.0,12.0,73,0.00,,,0.00,WeatherCatV1.22B15,2014-03-16 14:31:00,
2014-03-16 10:36:00,19.1,11.9,30.41,NNW,343,0.0,7.0,73,0.00,,,0.00,WeatherCatV1.22B15,2014-03-16 14:36:00,
2014-03-16 10:41:00,19.2,12.0,30.41,NW,317,0.0,10.0,73,0.00,,,0.00,WeatherCatV1.22B15,2014-03-16 14:41:00,
2014-03-16 10:46:00,19.5,12.3,30.41,ENE,61,3.0,5.0,73,0.00,,,0.00,WeatherCatV1.22B15,2014-03-16 14:46:00,
2014-03-16 10:51:00,20.0,12.8,30.41,North,5,2.0,14.0,73,0.00,,,0.00,WeatherCatV1.22B15,2014-03-16 14:51:00,
2014-03-16 10:56:00,20.0,12.4,30.41,NNE,19,4.0,10.0,72,0.00,,,0.00,WeatherCatV1.22B15,2014-03-16 14:56:00,
2014-03-16 11:01:00,20.0,12.4,30.41,NE,40,0.0,4.0,72,0.00,,,0.00,WeatherCatV1.22B15,2014-03-16 15:01:00,
2014-03-16 11:06:00,20.7,12.8,30.41,NE,37,2.0,11.0,71,0.00,,,0.00,WeatherCatV1.22B15,2014-03-16 15:06:00,
2014-03-16 11:11:00,21.0,11.4,30.41,ENE,74,4.0,11.0,66,0.00,,,0.00,WeatherCatV1.22B15,2014-03-16 15:11:00,
2014-03-16 11:16:00,20.7,10.5,30.40,East,84,4.0,11.0,64,0.00,,,0.00,WeatherCatV1.22B15,2014-03-16 15:16:00,
2014-03-16 11:21:00,20.6,10.7,30.41,North,9,1.0,15.0,65,0.00,,,0.00,WeatherCatV1.22B15,2014-03-16 15:21:00,
2014-03-16 11:26:00,20.6,11.1,30.40,NE,36,12.0,12.0,66,0.00,,,0.00,WeatherCatV1.22B15,2014-03-16 15:26:00,
2014-03-16 11:31:00,20.8,11.6,30.40,North,355,0.0,11.0,67,0.00,,,0.00,WeatherCatV1.22B15,2014-03-16 15:31:00,
2014-03-16 11:36:00,20.3,11.1,30.40,NE,42,6.0,11.0,67,0.00,,,0.00,WeatherCatV1.22B15,2014-03-16 15:36:00,
2014-03-16 11:41:00,19.9,11.1,30.41,ENE,64,7.0,7.0,68,0.00,,,0.00,WeatherCatV1.22B15,2014-03-16 15:41:00,
2014-03-16 11:46:00,20.0,11.2,30.41,NNE,21,0.0,13.0,68,0.00,,,0.00,WeatherCatV1.22B15,2014-03-16 15:46:00,
2014-03-16 11:51:00,20.1,11.3,30.41,ENE,67,0.0,6.0,68,0.00,,,0.00,WeatherCatV1.22B15,2014-03-16 15:51:00,
2014-03-16 11:56:00,20.3,11.4,30.41,ENE,69,8.0,12.0,68,0.00,,,0.00,WeatherCatV1.22B15,2014-03-16 15:56:00,
2014-03-16 12:01:00,20.7,11.8,30.41,NNW,332,3.0,9.0,68,0.00,,,0.00,WeatherCatV1.22B15,2014-03-16 16:01:00,
2014-03-16 12:06:00,20.8,11.3,30.41,East,90,4.0,7.0,66,0.00,,,0.00,WeatherCatV1.22B15,2014-03-16 16:06:00,
2014-03-16 12:11:00,21.2,11.3,30.41,East,79,1.0,7.0,65,0.00,,,0.00,WeatherCatV1.22B15,2014-03-16 16:11:00,
2014-03-16 12:16:00,20.9,11.0,30.41,East,92,1.0,5.0,65,0.00,,,0.00,WeatherCatV1.22B15,2014-03-16 16:16:00,
2014-03-16 12:21:00,21.3,11.4,30.41,NNW,337,6.0,13.0,65,0.00,,,0.00,WeatherCatV1.22B15,2014-03-16 16:21:00,
2014-03-16 12:26:00,21.1,10.9,30.41,WSW,249,0.0,10.0,64,0.00,,,0.00,WeatherCatV1.22B15,2014-03-16 16:26:00,
2014-03-16 12:31:00,21.0,10.8,30.41,North,5,6.0,11.0,64,0.00,,,0.00,WeatherCatV1.22B15,2014-03-16 16:31:00,
2014-03-16 12:36:00,20.7,10.5,30.42,East,98,2.0,6.0,64,0.00,,,0.00,WeatherCatV1.22B15,2014-03-16 16:36:00,
2014-03-16 12:41:00,20.0,9.8,30.42,ENE,74,0.0,3.0,64,0.00,,,0.00,WeatherCatV1.22B15,2014-03-16 16:41:00,
2014-03-16 12:46:00,20.2,10.7,30.42,North,5,9.0,9.0,66,0.00,,,0.00,WeatherCatV1.22B15,2014-03-16 16:46:00,
2014-03-16 12:51:00,19.8,10.0,30.42,North,5,1.0,13.0,65,0.00,,,0.00,WeatherCatV1.22B15,2014-03-16 16:51:00,
2014-03-16 12:56:00,19.8,10.3,30.42,North,351,0.0,4.0,66,0.00,,,0.00,WeatherCatV1.22B15,2014-03-16 16:56:00,
2014-03-16 13:01:00,20.2,10.4,30.42,WNW,303,3.0,9.0,65,0.00,,,0.00,WeatherCatV1.22B15,2014-03-16 17:01:00,
2014-03-16 13:06:00,20.2,10.4,30.42,NNE,13,5.0,5.0,65,0.00,,,0.00,WeatherCatV1.22B15,2014-03-16 17:06:00,
2014-03-16 13:11:00,20.6,11.1,30.42,North,5,5.0,6.0,66,0.00,,,0.00,WeatherCatV1.22B15,2014-03-16 17:11:00,
2014-03-16 13:16:00,20.7,10.8,30.42,ENE,59,3.0,7.0,65,0.00,,,0.00,WeatherCatV1.22B15,2014-03-16 17:16:00,
2014-03-16 13:21:00,21.0,11.1,30.42,SW,226,0.0,6.0,65,0.00,,,0.00,WeatherCatV1.22B15,2014-03-16 17:21:00,
2014-03-16 13:26:00,21.4,11.8,30.42,ENE,76,1.0,13.0,66,0.00,,,0.00,WeatherCatV1.22B15,2014-03-16 17:26:00,
2014-03-16 13:31:00,21.6,12.0,30.41,WNW,296,0.0,2.0,66,0.00,,,0.00,WeatherCatV1.22B15,2014-03-16 17:31:00,
2014-03-16 13:36:00,21.6,11.7,30.42,East,90,4.0,11.0,65,0.00,,,0.00,WeatherCatV1.22B15,2014-03-16 17:36:00,
2014-03-16 13:41:00,21.3,11.1,30.42,NNE,19,0.0,14.0,64,0.00,,,0.00,WeatherCatV1.22B15,2014-03-16 17:41:00,
2014-03-16 13:46:00,21.4,11.5,30.42,NW,323,6.0,15.0,65,0.00,,,0.00,WeatherCatV1.22B15,2014-03-16 17:46:00,
2014-03-16 13:51:00,21.2,10.9,30.42,North,350,1.0,6.0,64,0.00,,,0.00,WeatherCatV1.22B15,2014-03-16 17:51:00,
2014-03-16 13:56:00,21.6,11.7,30.41,ENE,73,3.0,5.0,65,0.00,,,0.00,WeatherCatV1.22B15,2014-03-16 17:56:00,
2014-03-16 14:01:00,20.8,10.6,30.41,ESE,103,3.0,10.0,64,0.00,,,0.00,WeatherCatV1.22B15,2014-03-16 18:01:00,
2014-03-16 14:06:00,21.0,11.1,30.41,East,82,4.0,7.0,65,0.00,,,0.00,WeatherCatV1.22B15,2014-03-16 18:06:00,
2014-03-16 14:11:00,21.4,11.8,30.41,NE,51,4.0,10.0,66,0.00,,,0.00,WeatherCatV1.22B15,2014-03-16 18:11:00,
2014-03-16 14:16:00,20.9,11.0,30.40,ENE,70,2.0,7.0,65,0.00,,,0.00,WeatherCatV1.22B15,2014-03-16 18:16:00,
2014-03-16 14:21:00,21.2,11.6,30.39,ENE,71,2.0,10.0,66,0.00,,,0.00,WeatherCatV1.22B15,2014-03-16 18:21:00,
2014-03-16 14:26:00,21.2,11.6,30.39,NNE,32,2.0,8.0,66,0.00,,,0.00,WeatherCatV1.22B15,2014-03-16 18:26:00,
2014-03-16 14:31:00,21.4,11.8,30.38,North,351,0.0,6.0,66,0.00,,,0.00,WeatherCatV1.22B15,2014-03-16 18:31:00,
2014-03-16 14:36:00,21.6,11.7,30.38,NE,48,1.0,10.0,65,0.00,,,0.00,WeatherCatV1.22B15,2014-03-16 18:36:00,
2014-03-16 14:41:00,21.2,11.3,30.38,NNE,13,4.0,6.0,65,0.00,,,0.00,WeatherCatV1.22B15,2014-03-16 18:41:00,
2014-03-16 14:46:00,21.4,11.5,30.37,North,9,0.0,15.0,65,0.00,,,0.00,WeatherCatV1.22B15,2014-03-16 18:46:00,
2014-03-16 14:51:00,21.8,11.9,30.37,ENE,61,0.0,9.0,65,0.00,,,0.00,WeatherCatV1.22B15,2014-03-16 18:51:00,
2014-03-16 14:56:00,22.1,12.2,30.36,ENE,65,6.0,7.0,65,0.00,,,0.00,WeatherCatV1.22B15,2014-03-16 18:56:00,
2014-03-16 15:01:00,21.8,11.9,30.36,NNE,30,6.0,9.0,65,0.00,,,0.00,WeatherCatV1.22B15,2014-03-16 19:01:00,
2014-03-16 15:06:00,21.8,11.9,30.36,NW,313,3.0,6.0,65,0.00,,,0.00,WeatherCatV1.22B15,2014-03-16 19:06:00,
2014-03-16 15:11:00,21.7,11.4,30.36,NE,36,2.0,11.0,64,0.00,,,0.00,WeatherCatV1.22B15,2014-03-16 19:11:00,
2014-03-16 15:16:00,21.2,10.9,30.36,East,94,4.0,7.0,64,0.00,,,0.00,WeatherCatV1.22B15,2014-03-16 19:16:00,
2014-03-16 15:17:00,21.2,10.9,30.36,SE,134,0.0,11.0,64,0.00,,,0.00,WeatherCatV1.22B15,2014-03-16 19:17:00,
2014-03-16 15:22:00,21.3,11.4,30.36,East,83,5.0,9.0,65,0.00,,,0.00,WeatherCatV1.22B15,2014-03-16 19:22:00,
2014-03-16 15:27:00,21.2,11.3,30.35,NNE,29,0.0,10.0,65,0.00,,,0.00,WeatherCatV1.22B15,2014-03-16 19:27:00,
2014-03-16 15:32:00,21.1,11.2,30.36,ENE,72,2.0,9.0,65,0.00,,,0.00,WeatherCatV1.22B15,2014-03-16 19:32:00,
2014-03-16 15:37:00,21.2,11.3,30.35,NE,45,3.0,5.0,65,0.00,,,0.00,WeatherCatV1.22B15,2014-03-16 19:37:00,
2014-03-16 15:42:00,21.7,12.1,30.35,ENE,63,3.0,5.0,66,0.00,,,0.00,WeatherCatV1.22B15,2014-03-16 19:42:00,
2014-03-16 15:47:00,21.6,11.3,30.34,East,90,3.0,8.0,64,0.00,,,0.00,WeatherCatV1.22B15,2014-03-16 19:47:00,
2014-03-16 15:52:00,21.5,11.2,30.34,NNW,340,1.0,9.0,64,0.00,,,0.00,WeatherCatV1.22B15,2014-03-16 19:52:00,
2014-03-16 15:57:00,21.6,11.7,30.34,NNW,336,1.0,8.0,65,0.00,,,0.00,WeatherCatV1.22B15,2014-03-16 19:57:00,
2014-03-16 16:02:00,21.6,11.3,30.33,NE,53,2.0,9.0,64,0.00,,,0.00,WeatherCatV1.22B15,2014-03-16 20:02:00,
2014-03-16 16:07:00,21.6,11.3,30.32,East,99,4.0,9.0,64,0.00,,,0.00,WeatherCatV1.22B15,2014-03-16 20:07:00,
2014-03-16 16:12:00,21.4,11.1,30.32,ENE,65,0.0,6.0,64,0.00,,,0.00,WeatherCatV1.22B15,2014-03-16 20:12:00,
2014-03-16 16:17:00,21.3,10.7,30.32,North,0,3.0,10.0,63,0.00,,,0.00,WeatherCatV1.22B15,2014-03-16 20:17:00,
2014-03-16 16:22:00,21.0,10.4,30.32,NNE,14,5.0,6.0,63,0.00,,,0.00,WeatherCatV1.22B15,2014-03-16 20:22:00,
2014-03-16 16:27:00,20.8,10.2,30.32,East,88,7.0,10.0,63,0.00,,,0.00,WeatherCatV1.22B15,2014-03-16 20:27:00,
2014-03-16 16:32:00,21.0,11.1,30.32,NNW,342,4.0,7.0,65,0.00,,,0.00,WeatherCatV1.22B15,2014-03-16 20:32:00,
2014-03-16 16:37:00,20.9,10.3,30.32,NNW,348,0.0,12.0,63,0.00,,,0.00,WeatherCatV1.22B15,2014-03-16 20:37:00,
2014-03-16 16:42:00,21.2,10.6,30.32,NNE,30,5.0,7.0,63,0.00,,,0.00,WeatherCatV1.22B15,2014-03-16 20:42:00,
2014-03-16 16:47:00,21.4,10.8,30.32,ENE,69,2.0,6.0,63,0.00,,,0.00,WeatherCatV1.22B15,2014-03-16 20:47:00,
2014-03-16 16:52:00,21.5,10.9,30.32,NNE,22,2.0,6.0,63,0.00,,,0.00,WeatherCatV1.22B15,2014-03-16 20:52:00,
2014-03-16 16:57:00,21.3,10.3,30.32,North,355,0.0,9.0,62,0.00,,,0.00,WeatherCatV1.22B15,2014-03-16 20:57:00,
2014-03-16 17:02:00,21.0,9.7,30.32,ENE,66,1.0,7.0,61,0.00,,,0.00,WeatherCatV1.22B15,2014-03-16 21:02:00,
2014-03-16 17:08:00,21.2,10.9,30.32,ENE,72,0.0,5.0,64,0.00,,,0.00,WeatherCatV1.22B15,2014-03-16 21:08:00,
2014-03-16 17:13:00,21.0,10.8,30.32,ENE,76,3.0,9.0,64,0.00,,,0.00,WeatherCatV1.22B15,2014-03-16 21:13:00,
2014-03-16 17:18:00,20.8,10.6,30.32,North,5,2.0,8.0,64,0.00,,,0.00,WeatherCatV1.22B15,2014-03-16 21:18:00,
2014-03-16 17:23:00,20.4,10.2,30.33,ENE,58,3.0,10.0,64,0.00,,,0.00,WeatherCatV1.22B15,2014-03-16 21:23:00,
2014-03-16 17:28:00,20.1,9.9,30.32,North,349,6.0,6.0,64,0.00,,,0.00,WeatherCatV1.22B15,2014-03-16 21:28:00,
2014-03-16 17:33:00,20.1,10.2,30.32,North,9,1.0,7.0,65,0.00,,,0.00,WeatherCatV1.22B15,2014-03-16 21:33:00,
2014-03-16 17:38:00,20.0,9.8,30.32,ENE,58,0.0,0.0,64,0.00,,,0.00,WeatherCatV1.22B15,2014-03-16 21:38:00,
2014-03-16 17:43:00,19.8,8.6,30.32,NNW,338,3.0,12.0,61,0.00,,,0.00,WeatherCatV1.22B15,2014-03-16 21:43:00,
2014-03-16 17:48:00,19.5,8.6,30.31,NE,37,0.0,6.0,62,0.00,,,0.00,WeatherCatV1.22B15,2014-03-16 21:48:00,
2014-03-16 17:53:00,19.5,8.6,30.31,North,9,4.0,11.0,62,0.00,,,0.00,WeatherCatV1.22B15,2014-03-16 21:53:00,
2014-03-16 17:58:00,19.6,9.1,30.31,ENE,58,0.0,0.0,63,0.00,,,0.00,WeatherCatV1.22B15,2014-03-16 21:58:00,
2014-03-16 18:03:00,19.7,9.2,30.31,NNW,328,5.0,5.0,63,0.00,,,0.00,WeatherCatV1.22B15,2014-03-16 22:03:00,
2014-03-16 18:08:00,19.4,8.9,30.30,NNE,29,7.0,9.0,63,0.00,,,0.00,WeatherCatV1.22B15,2014-03-16 22:08:00,
2014-03-16 18:13:00,19.2,8.7,30.30,East,81,1.0,6.0,63,0.00,,,0.00,WeatherCatV1.22B15,2014-03-16 22:13:00,
2014-03-16 18:18:00,19.0,9.2,30.30,NE,38,0.0,4.0,65,0.00,,,0.00,WeatherCatV1.22B15,2014-03-16 22:18:00,
2014-03-16 18:23:00,19.1,9.6,30.30,NNW,348,3.0,9.0,66,0.00,,,0.00,WeatherCatV1.22B15,2014-03-16 22:23:00,
2014-03-16 18:28:00,19.1,9.6,30.30,East,86,3.0,6.0,66,0.00,,,0.00,WeatherCatV1.22B15,2014-03-16 22:28:00,
2014-03-16 18:33:00,19.0,9.5,30.30,NNE,25,0.0,6.0,66,0.00,,,0.00,WeatherCatV1.22B15,2014-03-16 22:33:00,
2014-03-16 18:38:00,19.0,9.5,30.30,ENE,72,3.0,6.0,66,0.00,,,0.00,WeatherCatV1.22B15,2014-03-16 22:38:00,
2014-03-16 18:43:00,18.7,8.9,30.30,NNE,33,4.0,5.0,65,0.00,,,0.00,WeatherCatV1.22B15,2014-03-16 22:43:00,
2014-03-16 18:48:00,18.6,9.2,30.30,North,0,0.0,4.0,66,0.00,,,0.00,WeatherCatV1.22B15,2014-03-16 22:48:00,
2014-03-16 18:53:00,18.5,9.1,30.29,East,80,0.0,12.0,66,0.00,,,0.00,WeatherCatV1.22B15,2014-03-16 22:53:00,
2014-03-16 18:58:00,18.3,8.9,30.30,East,90,0.0,12.0,66,0.00,,,0.00,WeatherCatV1.22B15,2014-03-16 22:58:00,
2014-03-16 19:03:00,18.3,9.2,30.30,ENE,63,0.0,6.0,67,0.00,,,0.00,WeatherCatV1.22B15,2014-03-16 23:03:00,
2014-03-16 19:08:00,18.2,8.8,30.30,ENE,64,3.0,5.0,66,0.00,,,0.00,WeatherCatV1.22B15,2014-03-16 23:08:00,
2014-03-16 19:13:00,18.2,9.1,30.29,ENE,60,0.0,4.0,67,0.00,,,0.00,WeatherCatV1.22B15,2014-03-16 23:13:00,
2014-03-16 19:18:00,18.2,9.1,30.29,ENE,59,0.0,7.0,67,0.00,,,0.00,WeatherCatV1.22B15,2014-03-16 23:18:00,
2014-03-16 19:23:00,18.1,9.0,30.29,East,92,0.0,6.0,67,0.00,,,0.00,WeatherCatV1.22B15,2014-03-16 23:23:00,
2014-03-16 19:28:00,18.0,8.9,30.29,NE,42,0.0,8.0,67,0.00,,,0.00,WeatherCatV1.22B15,2014-03-16 23:28:00,
2014-03-16 19:33:00,17.9,8.8,30.29,ENE,58,0.0,5.0,67,0.00,,,0.00,WeatherCatV1.22B15,2014-03-16 23:33:00,
2014-03-16 19:38:00,17.8,9.1,30.29,NE,52,0.0,10.0,68,0.00,,,0.00,WeatherCatV1.22B15,2014-03-16 23:38:00,
2014-03-16 19:43:00,17.8,9.4,30.28,NE,46,2.0,6.0,69,0.00,,,0.00,WeatherCatV1.22B15,2014-03-16 23:43:00,
2014-03-16 19:48:00,17.7,9.3,30.28,ENE,70,3.0,5.0,69,0.00,,,0.00,WeatherCatV1.22B15,2014-03-16 23:48:00,
2014-03-16 19:53:00,17.6,9.2,30.28,ENE,67,0.0,6.0,69,0.00,,,0.00,WeatherCatV1.22B15,2014-03-16 23:53:00,
2014-03-16 19:58:00,17.6,9.2,30.28,ENE,71,5.0,5.0,69,0.00,,,0.00,WeatherCatV1.22B15,2014-03-16 23:58:00,
2014-03-16 20:03:00,17.6,9.2,30.28,ENE,74,0.0,6.0,69,0.00,,,0.00,WeatherCatV1.22B15,2014-03-17 00:03:00,
2014-03-16 20:08:00,17.6,9.5,30.29,NE,41,6.0,10.0,70,0.00,,,0.00,WeatherCatV1.22B15,2014-03-17 00:08:00,
2014-03-16 20:13:00,17.6,9.2,30.29,NW,315,0.0,6.0,69,0.00,,,0.00,WeatherCatV1.22B15,2014-03-17 00:13:00,
2014-03-16 20:18:00,17.6,9.2,30.29,NE,49,3.0,6.0,69,0.00,,,0.00,WeatherCatV1.22B15,2014-03-17 00:18:00,
2014-03-16 20:23:00,17.6,9.2,30.29,ENE,65,0.0,2.0,69,0.00,,,0.00,WeatherCatV1.22B15,2014-03-17 00:23:00,
2014-03-16 20:28:00,17.6,9.2,30.29,North,355,5.0,9.0,69,0.00,,,0.00,WeatherCatV1.22B15,2014-03-17 00:28:00,
2014-03-16 20:33:00,17.6,9.5,30.29,NE,46,3.0,10.0,70,0.00,,,0.00,WeatherCatV1.22B15,2014-03-17 00:33:00,
2014-03-16 20:38:00,17.6,9.5,30.29,ENE,77,0.0,6.0,70,0.00,,,0.00,WeatherCatV1.22B15,2014-03-17 00:38:00,
2014-03-16 20:43:00,17.6,9.5,30.29,NE,49,0.0,2.0,70,0.00,,,0.00,WeatherCatV1.22B15,2014-03-17 00:43:00,
2014-03-16 20:48:00,17.6,9.5,30.29,NE,43,0.0,9.0,70,0.00,,,0.00,WeatherCatV1.22B15,2014-03-17 00:48:00,
2014-03-16 20:53:00,17.6,9.2,30.29,NNE,20,4.0,4.0,69,0.00,,,0.00,WeatherCatV1.22B15,2014-03-17 00:53:00,
2014-03-16 20:58:00,17.6,9.2,30.29,NNW,337,2.0,9.0,69,0.00,,,0.00,WeatherCatV1.22B15,2014-03-17 00:58:00,
2014-03-16 21:03:00,17.6,9.2,30.29,NNW,346,0.0,8.0,69,0.00,,,0.00,WeatherCatV1.22B15,2014-03-17 01:03:00,
2014-03-16 21:08:00,17.6,9.2,30.29,NE,36,0.0,4.0,69,0.00,,,0.00,WeatherCatV1.22B15,2014-03-17 01:08:00,
2014-03-16 21:13:00,17.7,9.6,30.28,North,355,1.0,5.0,70,0.00,,,0.00,WeatherCatV1.22B15,2014-03-17 01:13:00,
2014-03-16 21:18:00,17.7,9.6,30.28,North,355,1.0,5.0,70,0.00,,,0.00,WeatherCatV1.22B15,2014-03-17 01:18:00,
2014-03-16 21:23:00,17.6,9.2,30.28,NNE,16,0.0,4.0,69,0.00,,,0.00,WeatherCatV1.22B15,2014-03-17 01:23:00,
2014-03-16 21:28:00,17.6,9.2,30.28,East,79,4.0,6.0,69,0.00,,,0.00,WeatherCatV1.22B15,2014-03-17 01:28:00,
2014-03-16 21:33:00,17.6,9.5,30.27,NE,44,3.0,7.0,70,0.00,,,0.00,WeatherCatV1.22B15,2014-03-17 01:33:00,
2014-03-16 21:38:00,17.6,9.5,30.27,NNW,346,2.0,10.0,70,0.00,,,0.00,WeatherCatV1.22B15,2014-03-17 01:38:00,
2014-03-16 21:43:00,17.5,9.4,30.27,NNW,331,2.0,4.0,70,0.00,,,0.00,WeatherCatV1.22B15,2014-03-17 01:43:00,
2014-03-16 21:48:00,17.5,9.4,30.27,West,273,2.0,5.0,70,0.00,,,0.00,WeatherCatV1.22B15,2014-03-17 01:48:00,
2014-03-16 21:53:00,17.5,9.7,30.26,NNW,331,2.0,4.0,71,0.00,,,0.00,WeatherCatV1.22B15,2014-03-17 01:53:00,
2014-03-16 21:58:00,17.4,9.6,30.26,NNW,346,1.0,12.0,71,0.00,,,0.00,WeatherCatV1.22B15,2014-03-17 01:58:00,
2014-03-16 22:03:00,17.4,9.6,30.26,North,0,1.0,5.0,71,0.00,,,0.00,WeatherCatV1.22B15,2014-03-17 02:03:00,
2014-03-16 22:08:00,17.3,9.5,30.26,NNW,348,5.0,12.0,71,0.00,,,0.00,WeatherCatV1.22B15,2014-03-17 02:08:00,
2014-03-16 22:13:00,17.3,9.5,30.26,ENE,72,1.0,11.0,71,0.00,,,0.00,WeatherCatV1.22B15,2014-03-17 02:13:00,
2014-03-16 22:18:00,17.4,9.6,30.26,NW,313,9.0,9.0,71,0.00,,,0.00,WeatherCatV1.22B15,2014-03-17 02:18:00,
2014-03-16 22:23:00,17.4,9.9,30.26,NE,46,3.0,6.0,72,0.00,,,0.00,WeatherCatV1.22B15,2014-03-17 02:23:00,
2014-03-16 22:28:00,17.3,9.9,30.26,ENE,76,2.0,4.0,72,0.00,,,0.00,WeatherCatV1.22B15,2014-03-17 02:28:00,
2014-03-16 22:33:00,17.2,9.8,30.26,NE,45,0.0,6.0,72,0.00,,,0.00,WeatherCatV1.22B15,2014-03-17 02:33:00,
2014-03-16 22:38:00,17.2,9.8,30.26,North,0,1.0,4.0,72,0.00,,,0.00,WeatherCatV1.22B15,2014-03-17 02:38:00,
2014-03-16 22:43:00,17.1,9.7,30.25,ENE,68,0.0,8.0,72,0.00,,,0.00,WeatherCatV1.22B15,2014-03-17 02:43:00,
2014-03-16 22:48:00,17.1,9.7,30.26,NNE,32,6.0,9.0,72,0.00,,,0.00,WeatherCatV1.22B15,2014-03-17 02:48:00,
2014-03-16 22:53:00,17.1,10.0,30.26,NNW,337,3.0,5.0,73,0.00,,,0.00,WeatherCatV1.22B15,2014-03-17 02:53:00,
2014-03-16 22:58:00,17.0,9.9,30.26,ENE,68,0.0,10.0,73,0.00,,,0.00,WeatherCatV1.22B15,2014-03-17 02:58:00,
2014-03-16 23:03:00,16.9,9.5,30.25,NE,51,0.0,6.0,72,0.00,,,0.00,WeatherCatV1.22B15,2014-03-17 03:03:00,
2014-03-16 23:08:00,16.9,9.5,30.25,NNW,341,0.0,2.0,72,0.00,,,0.00,WeatherCatV1.22B15,2014-03-17 03:08:00,
2014-03-16 23:13:00,16.9,9.5,30.25,NE,35,2.0,10.0,72,0.00,,,0.00,WeatherCatV1.22B15,2014-03-17 03:13:00,
2014-03-16 23:18:00,16.9,9.5,30.24,NNE,22,3.0,5.0,72,0.00,,,0.00,WeatherCatV1.22B15,2014-03-17 03:18:00,
2014-03-16 23:23:00,16.8,9.4,30.24,NNE,15,0.0,5.0,72,0.00,,,0.00,WeatherCatV1.22B15,2014-03-17 03:23:00,
2014-03-16 23:28:00,16.8,9.4,30.23,ENE,78,0.0,5.0,72,0.00,,,0.00,WeatherCatV1.22B15,2014-03-17 03:28:00,
2014-03-16 23:33:00,16.8,9.4,30.23,NE,49,0.0,9.0,72,0.00,,,0.00,WeatherCatV1.22B15,2014-03-17 03:33:00,
2014-03-16 23:35:00,16.7,9.3,30.23,NNE,30,1.0,3.0,72,0.00,,,0.00,WeatherCatV1.22B15,2014-03-17 03:35:00,
2014-03-16 23:38:00,16.7,9.3,30.23,ENE,65,0.0,0.0,72,0.00,,,0.00,WeatherCatV1.22B15,2014-03-17 03:38:00,
2014-03-16 23:40:00,16.7,9.3,30.23,NE,47,0.0,0.0,72,0.00,,,0.00,WeatherCatV1.22B15,2014-03-17 03:40:00,
2014-03-16 23:45:00,16.6,8.9,30.23,NE,43,1.0,3.0,71,0.00,,,0.00,WeatherCatV1.22B15,2014-03-17 03:45:00,
2014-03-16 23:50:00,16.5,8.8,30.22,NE,42,2.0,10.0,71,0.00,,,0.00,WeatherCatV1.22B15,2014-03-17 03:50:00,
2014-03-16 23:55:00,16.4,8.4,30.22,NE,43,3.0,7.0,70,0.00,,,0.00,WeatherCatV1.22B15,2014-03-17 03:55:00,